Webbville, Kentucky
Current Conditions -  °F | °C
As of 5:51 PM on Saturday 25 Oct 2014 (Local Time) from KHTS Reporting Station
Clear Clear  
Wind Chill: 66°   Ceiling: Unl
Heat Index: 66°   Visibility: 10mi
Dew Point: 54°   Wind: 9mph
Humidity: 65%   Direction: 230°SW
Pressure: 29.92"   Gusts: 18mph
Location:  38.18°N, 82.87°W
Report Text: KHTS 252151Z 23008G16KT 10SM CLR 19/12 A2992 RMK AO2 SLP129 T01890122
Loading
Personal Weather Stations






























Interactive Weather Map
Tropical Storm Tracking
New forecast layout! Learn more

10-Day Weather Forecast

Advertisements
Track Severe Weather on mobile